NGTA/TRW METAR and TAF weather

Enter ICAO airport designator
Station Type Date Time Source
NGTA METAR 2019/07/17 18:00 UTC NOAA

NGTA 171800Z VRB02KT 9999 VCSH FEW018TCU BKN300 27/25 Q1008


Station Type Date Time Source
NGTA Decoded METAR 2019/07/17 18:00 UTC NOAA

Tarawa, Kiribati (NGTA) 01-21N 172-55E 4M
Jul 17, 2019 - 02:00 PM EDT / 2019.07.17 1800 UTC
Wind: Variable at 2 MPH (2 KT):0
Visibility: greater than 7 mile(s):0
Sky conditions: mostly cloudy
Weather: showers in the vicinity; Towering cumulus clouds observed
Temperature: 80 F (27 C)
Dew Point: 77 F (25 C)
Relative Humidity: 88%
Pressure (altimeter): 29.77 in. Hg (1008 hPa)
ob: NGTA 171800Z VRB02KT 9999 VCSH FEW018TCU BKN300 27/25 Q1008
cycle: 18

Station Type Date Time Source
NGTA TAF 2019/07/17 18:16 UTC NOAA

TAF NGTA 171711Z 1718/1818 28007KT 9999 -SHRA SCT018 SCT040 BKN100 PROB40
TEMPO 1718/1724 5000 TSRA FEW018CB

Example: see airport list